sensor_id;sensor_type;location;lat;lon;timestamp;P1;durP1;ratioP1;P2;durP2;ratioP2
55082;SDS011;40978;52.850;6.506;2022-08-01T00:01:24;24.33;;;12.95;;
55082;SDS011;40978;52.850;6.506;2022-08-01T00:03:49;19.67;;;12.52;;
55082;SDS011;40978;52.850;6.506;2022-08-01T00:06:15;20.50;;;12.57;;
55082;SDS011;40978;52.850;6.506;2022-08-01T00:08:41;19.85;;;12.55;;
55082;SDS011;40978;52.850;6.506;2022-08-01T00:11:06;17.00;;;12.50;;
55082;SDS011;40978;52.850;6.506;2022-08-01T00:13:34;37.08;;;15.05;;
55082;SDS011;40978;52.850;6.506;2022-08-01T00:16:00;22.58;;;13.45;;
55082;SDS011;40978;52.850;6.506;2022-08-01T00:18:25;17.40;;;12.35;;
55082;SDS011;40978;52.850;6.506;2022-08-01T00:20:51;18.38;;;12.27;;
55082;SDS011;40978;52.850;6.506;2022-08-01T00:23:17;15.75;;;12.05;;
55082;SDS011;40978;52.850;6.506;2022-08-01T00:25:42;19.73;;;12.55;;
55082;SDS011;40978;52.850;6.506;2022-08-01T00:28:08;15.68;;;11.40;;
55082;SDS011;40978;52.850;6.506;2022-08-01T00:30:35;16.15;;;11.57;;
55082;SDS011;40978;52.850;6.506;2022-08-01T00:33:01;13.38;;;10.95;;
55082;SDS011;40978;52.850;6.506;2022-08-01T00:35:27;17.23;;;9.63;;
55082;SDS011;40978;52.850;6.506;2022-08-01T00:37:52;13.55;;;9.20;;
55082;SDS011;40978;52.850;6.506;2022-08-01T00:40:18;13.95;;;9.35;;
55082;SDS011;40978;52.850;6.506;2022-08-01T00:42:44;13.93;;;8.90;;
55082;SDS011;40978;52.850;6.506;2022-08-01T00:45:10;15.05;;;8.95;;
55082;SDS011;40978;52.850;6.506;2022-08-01T00:47:36;11.65;;;8.32;;
55082;SDS011;40978;52.850;6.506;2022-08-01T00:50:03;11.52;;;7.43;;
55082;SDS011;40978;52.850;6.506;2022-08-01T00:52:29;11.82;;;6.75;;
55082;SDS011;40978;52.850;6.506;2022-08-01T00:54:55;6.50;;;5.28;;
55082;SDS011;40978;52.850;6.506;2022-08-01T00:57:21;5.75;;;5.15;;
55082;SDS011;40978;52.850;6.506;2022-08-01T00:59:47;9.50;;;5.78;;
55082;SDS011;40978;52.850;6.506;2022-08-01T01:02:13;8.27;;;5.25;;
55082;SDS011;40978;52.850;6.506;2022-08-01T01:04:39;7.03;;;4.57;;
55082;SDS011;40978;52.850;6.506;2022-08-01T01:07:06;9.32;;;5.57;;
55082;SDS011;40978;52.850;6.506;2022-08-01T01:10:00;11.02;;;5.18;;
55082;SDS011;40978;52.850;6.506;2022-08-01T01:12:36;8.57;;;4.85;;
55082;SDS011;40978;52.850;6.506;2022-08-01T01:15:13;7.10;;;4.88;;
55082;SDS011;40978;52.850;6.506;2022-08-01T01:20:25;9.75;;;5.80;;
55082;SDS011;40978;52.850;6.506;2022-08-01T01:23:12;8.68;;;6.45;;
55082;SDS011;40978;52.850;6.506;2022-08-01T01:31:19;13.93;;;8.35;;
55082;SDS011;40978;52.850;6.506;2022-08-01T01:33:46;12.68;;;7.65;;
55082;SDS011;40978;52.850;6.506;2022-08-01T01:36:13;25.90;;;9.70;;
55082;SDS011;40978;52.850;6.506;2022-08-01T01:38:42;13.57;;;8.57;;
55082;SDS011;40978;52.850;6.506;2022-08-01T01:41:10;18.58;;;9.38;;
55082;SDS011;40978;52.850;6.506;2022-08-01T01:43:40;12.55;;;8.57;;
55082;SDS011;40978;52.850;6.506;2022-08-01T01:46:07;7.13;;;6.10;;
55082;SDS011;40978;52.850;6.506;2022-08-01T01:48:35;8.70;;;5.90;;
55082;SDS011;40978;52.850;6.506;2022-08-01T01:51:03;8.65;;;5.18;;
55082;SDS011;40978;52.850;6.506;2022-08-01T01:53:29;6.93;;;4.50;;
55082;SDS011;40978;52.850;6.506;2022-08-01T01:55:59;5.03;;;4.10;;
55082;SDS011;40978;52.850;6.506;2022-08-01T01:58:27;7.03;;;4.55;;
55082;SDS011;40978;52.850;6.506;2022-08-01T02:00:54;4.68;;;3.83;;
55082;SDS011;40978;52.850;6.506;2022-08-01T02:03:22;4.28;;;3.88;;
55082;SDS011;40978;52.850;6.506;2022-08-01T02:05:50;6.15;;;4.32;;
55082;SDS011;40978;52.850;6.506;2022-08-01T02:08:18;6.45;;;4.20;;
55082;SDS011;40978;52.850;6.506;2022-08-01T02:10:44;4.25;;;3.58;;
55082;SDS011;40978;52.850;6.506;2022-08-01T02:13:31;7.78;;;3.78;;
55082;SDS011;40978;52.850;6.506;2022-08-01T02:15:59;4.28;;;3.88;;
55082;SDS011;40978;52.850;6.506;2022-08-01T02:18:26;5.93;;;4.07;;
55082;SDS011;40978;52.850;6.506;2022-08-01T02:20:52;9.27;;;4.55;;
55082;SDS011;40978;52.850;6.506;2022-08-01T02:23:20;6.65;;;4.32;;
55082;SDS011;40978;52.850;6.506;2022-08-01T02:25:49;8.18;;;4.90;;
55082;SDS011;40978;52.850;6.506;2022-08-01T02:28:20;7.20;;;4.38;;
55082;SDS011;40978;52.850;6.506;2022-08-01T02:30:53;6.30;;;4.80;;
55082;SDS011;40978;52.850;6.506;2022-08-01T02:33:27;7.95;;;4.85;;
55082;SDS011;40978;52.850;6.506;2022-08-01T02:36:04;9.35;;;5.28;;
55082;SDS011;40978;52.850;6.506;2022-08-01T02:38:32;7.60;;;5.40;;
55082;SDS011;40978;52.850;6.506;2022-08-01T02:41:04;8.43;;;5.20;;
55082;SDS011;40978;52.850;6.506;2022-08-01T02:43:34;7.10;;;5.00;;
55082;SDS011;40978;52.850;6.506;2022-08-01T02:46:03;7.43;;;5.18;;
55082;SDS011;40978;52.850;6.506;2022-08-01T02:48:31;9.52;;;6.25;;
55082;SDS011;40978;52.850;6.506;2022-08-01T02:51:03;8.15;;;5.32;;
55082;SDS011;40978;52.850;6.506;2022-08-01T02:53:31;6.93;;;5.68;;
55082;SDS011;40978;52.850;6.506;2022-08-01T02:56:03;8.18;;;4.25;;
55082;SDS011;40978;52.850;6.506;2022-08-01T02:58:30;5.30;;;3.97;;
55082;SDS011;40978;52.850;6.506;2022-08-01T03:00:58;7.03;;;2.55;;
55082;SDS011;40978;52.850;6.506;2022-08-01T03:03:24;6.63;;;2.63;;
55082;SDS011;40978;52.850;6.506;2022-08-01T03:05:51;4.40;;;2.30;;
55082;SDS011;40978;52.850;6.506;2022-08-01T03:08:17;4.82;;;2.40;;
55082;SDS011;40978;52.850;6.506;2022-08-01T03:10:45;7.13;;;2.20;;
55082;SDS011;40978;52.850;6.506;2022-08-01T03:13:12;9.95;;;2.10;;
55082;SDS011;40978;52.850;6.506;2022-08-01T03:15:40;5.57;;;1.90;;
55082;SDS011;40978;52.850;6.506;2022-08-01T03:18:08;7.25;;;2.08;;
55082;SDS011;40978;52.850;6.506;2022-08-01T03:20:35;11.35;;;2.50;;
55082;SDS011;40978;52.850;6.506;2022-08-01T03:23:03;9.48;;;2.40;;
55082;SDS011;40978;52.850;6.506;2022-08-01T03:25:31;9.20;;;1.90;;
55082;SDS011;40978;52.850;6.506;2022-08-01T03:28:01;6.60;;;2.13;;
55082;SDS011;40978;52.850;6.506;2022-08-01T03:30:29;9.73;;;2.05;;
55082;SDS011;40978;52.850;6.506;2022-08-01T03:32:57;5.93;;;1.90;;
55082;SDS011;40978;52.850;6.506;2022-08-01T03:35:26;6.20;;;1.98;;
55082;SDS011;40978;52.850;6.506;2022-08-01T03:37:59;5.63;;;1.60;;
55082;SDS011;40978;52.850;6.506;2022-08-01T03:40:31;6.43;;;1.67;;
55082;SDS011;40978;52.850;6.506;2022-08-01T03:43:05;6.50;;;1.50;;
55082;SDS011;40978;52.850;6.506;2022-08-01T03:45:39;8.00;;;1.83;;
55082;SDS011;40978;52.850;6.506;2022-08-01T03:48:11;7.05;;;1.85;;
55082;SDS011;40978;52.850;6.506;2022-08-01T03:50:41;7.20;;;1.77;;
55082;SDS011;40978;52.850;6.506;2022-08-01T03:53:10;7.85;;;1.83;;
55082;SDS011;40978;52.850;6.506;2022-08-01T03:55:38;8.00;;;1.88;;
55082;SDS011;40978;52.850;6.506;2022-08-01T03:58:06;6.55;;;1.70;;
55082;SDS011;40978;52.850;6.506;2022-08-01T04:00:35;6.53;;;2.20;;
55082;SDS011;40978;52.850;6.506;2022-08-01T04:03:04;6.20;;;1.88;;
55082;SDS011;40978;52.850;6.506;2022-08-01T04:05:31;5.05;;;2.08;;
55082;SDS011;40978;52.850;6.506;2022-08-01T04:07:57;5.90;;;2.40;;
55082;SDS011;40978;52.850;6.506;2022-08-01T04:10:24;9.63;;;2.38;;
55082;SDS011;40978;52.850;6.506;2022-08-01T04:12:50;12.18;;;2.25;;
55082;SDS011;40978;52.850;6.506;2022-08-01T04:15:17;6.50;;;1.98;;
55082;SDS011;40978;52.850;6.506;2022-08-01T04:17:43;8.30;;;2.50;;
55082;SDS011;40978;52.850;6.506;2022-08-01T04:20:09;10.15;;;2.55;;
55082;SDS011;40978;52.850;6.506;2022-08-01T04:22:36;6.82;;;2.38;;
55082;SDS011;40978;52.850;6.506;2022-08-01T04:25:02;10.32;;;2.80;;
55082;SDS011;40978;52.850;6.506;2022-08-01T04:27:36;8.45;;;2.63;;
55082;SDS011;40978;52.850;6.506;2022-08-01T04:30:03;10.02;;;2.50;;
55082;SDS011;40978;52.850;6.506;2022-08-01T04:32:31;9.70;;;2.50;;
55082;SDS011;40978;52.850;6.506;2022-08-01T04:35:03;13.30;;;3.20;;
55082;SDS011;40978;52.850;6.506;2022-08-01T04:37:32;10.85;;;3.10;;
55082;SDS011;40978;52.850;6.506;2022-08-01T04:40:02;12.00;;;2.58;;
55082;SDS011;40978;52.850;6.506;2022-08-01T04:42:30;15.13;;;3.30;;
55082;SDS011;40978;52.850;6.506;2022-08-01T04:44:57;8.60;;;2.90;;
55082;SDS011;40978;52.850;6.506;2022-08-01T04:47:23;11.82;;;3.63;;
55082;SDS011;40978;52.850;6.506;2022-08-01T04:49:51;11.48;;;3.10;;
55082;SDS011;40978;52.850;6.506;2022-08-01T04:52:16;12.90;;;2.78;;
55082;SDS011;40978;52.850;6.506;2022-08-01T04:54:45;12.88;;;3.38;;
55082;SDS011;40978;52.850;6.506;2022-08-01T04:57:11;15.55;;;3.90;;
55082;SDS011;40978;52.850;6.506;2022-08-01T04:59:38;9.13;;;3.20;;
55082;SDS011;40978;52.850;6.506;2022-08-01T05:02:11;12.23;;;3.05;;
55082;SDS011;40978;52.850;6.506;2022-08-01T05:04:38;9.05;;;2.95;;
55082;SDS011;40978;52.850;6.506;2022-08-01T05:07:05;15.10;;;3.67;;
55082;SDS011;40978;52.850;6.506;2022-08-01T05:09:31;11.95;;;3.90;;
55082;SDS011;40978;52.850;6.506;2022-08-01T05:11:58;11.30;;;3.08;;
55082;SDS011;40978;52.850;6.506;2022-08-01T05:14:25;17.55;;;4.32;;
55082;SDS011;40978;52.850;6.506;2022-08-01T05:16:52;11.23;;;3.08;;
55082;SDS011;40978;52.850;6.506;2022-08-01T05:19:17;11.32;;;4.40;;
55082;SDS011;40978;52.850;6.506;2022-08-01T05:21:44;10.43;;;2.78;;
55082;SDS011;40978;52.850;6.506;2022-08-01T05:24:09;12.20;;;3.63;;
55082;SDS011;40978;52.850;6.506;2022-08-01T05:26:35;12.88;;;3.67;;
55082;SDS011;40978;52.850;6.506;2022-08-01T05:29:01;8.95;;;2.78;;
55082;SDS011;40978;52.850;6.506;2022-08-01T05:31:27;16.30;;;3.65;;
55082;SDS011;40978;52.850;6.506;2022-08-01T05:33:53;11.18;;;3.05;;
55082;SDS011;40978;52.850;6.506;2022-08-01T05:36:19;12.45;;;3.15;;
55082;SDS011;40978;52.850;6.506;2022-08-01T05:38:44;14.10;;;3.30;;
55082;SDS011;40978;52.850;6.506;2022-08-01T05:41:10;11.98;;;3.28;;
55082;SDS011;40978;52.850;6.506;2022-08-01T05:43:36;12.00;;;2.92;;
55082;SDS011;40978;52.850;6.506;2022-08-01T05:46:02;12.30;;;2.60;;
55082;SDS011;40978;52.850;6.506;2022-08-01T05:48:27;14.48;;;3.88;;
55082;SDS011;40978;52.850;6.506;2022-08-01T05:50:53;11.23;;;3.05;;
55082;SDS011;40978;52.850;6.506;2022-08-01T05:53:19;16.02;;;3.22;;
55082;SDS011;40978;52.850;6.506;2022-08-01T05:55:45;12.25;;;2.80;;
55082;SDS011;40978;52.850;6.506;2022-08-01T05:58:11;11.30;;;3.08;;
55082;SDS011;40978;52.850;6.506;2022-08-01T06:00:36;13.57;;;3.40;;
55082;SDS011;40978;52.850;6.506;2022-08-01T06:03:02;9.68;;;2.80;;
55082;SDS011;40978;52.850;6.506;2022-08-01T06:05:28;12.75;;;2.88;;
55082;SDS011;40978;52.850;6.506;2022-08-01T06:07:53;11.13;;;2.65;;
55082;SDS011;40978;52.850;6.506;2022-08-01T06:10:19;11.05;;;2.88;;
55082;SDS011;40978;52.850;6.506;2022-08-01T06:12:45;11.32;;;2.83;;
55082;SDS011;40978;52.850;6.506;2022-08-01T06:15:11;12.82;;;3.05;;
55082;SDS011;40978;52.850;6.506;2022-08-01T06:17:37;10.70;;;2.72;;
55082;SDS011;40978;52.850;6.506;2022-08-01T06:20:04;15.82;;;2.53;;
55082;SDS011;40978;52.850;6.506;2022-08-01T06:22:31;14.93;;;3.35;;
55082;SDS011;40978;52.850;6.506;2022-08-01T06:24:57;19.60;;;3.30;;
55082;SDS011;40978;52.850;6.506;2022-08-01T06:27:22;13.93;;;3.17;;
55082;SDS011;40978;52.850;6.506;2022-08-01T06:29:49;16.30;;;3.33;;
55082;SDS011;40978;52.850;6.506;2022-08-01T06:32:18;14.23;;;2.97;;
55082;SDS011;40978;52.850;6.506;2022-08-01T06:34:44;14.70;;;2.80;;
55082;SDS011;40978;52.850;6.506;2022-08-01T06:37:10;14.90;;;2.78;;
55082;SDS011;40978;52.850;6.506;2022-08-01T06:39:38;13.00;;;2.80;;
55082;SDS011;40978;52.850;6.506;2022-08-01T06:42:03;15.02;;;3.03;;
55082;SDS011;40978;52.850;6.506;2022-08-01T06:44:29;15.48;;;3.00;;
55082;SDS011;40978;52.850;6.506;2022-08-01T06:46:55;12.77;;;3.03;;
55082;SDS011;40978;52.850;6.506;2022-08-01T06:49:23;16.42;;;3.67;;
55082;SDS011;40978;52.850;6.506;2022-08-01T06:51:49;14.98;;;2.58;;
55082;SDS011;40978;52.850;6.506;2022-08-01T06:54:15;18.40;;;2.80;;
55082;SDS011;40978;52.850;6.506;2022-08-01T06:56:41;18.27;;;3.33;;
55082;SDS011;40978;52.850;6.506;2022-08-01T06:59:07;17.25;;;3.53;;
55082;SDS011;40978;52.850;6.506;2022-08-01T07:01:33;16.45;;;2.85;;
55082;SDS011;40978;52.850;6.506;2022-08-01T07:03:58;17.42;;;3.17;;
55082;SDS011;40978;52.850;6.506;2022-08-01T07:06:24;18.10;;;3.22;;
55082;SDS011;40978;52.850;6.506;2022-08-01T07:08:54;15.13;;;3.75;;
55082;SDS011;40978;52.850;6.506;2022-08-01T07:11:20;18.77;;;2.78;;
55082;SDS011;40978;52.850;6.506;2022-08-01T07:13:47;12.70;;;2.97;;
55082;SDS011;40978;52.850;6.506;2022-08-01T07:16:13;13.18;;;3.08;;
55082;SDS011;40978;52.850;6.506;2022-08-01T07:18:39;20.52;;;3.42;;
55082;SDS011;40978;52.850;6.506;2022-08-01T07:21:05;17.60;;;3.67;;
55082;SDS011;40978;52.850;6.506;2022-08-01T07:23:31;22.20;;;3.75;;
55082;SDS011;40978;52.850;6.506;2022-08-01T07:25:56;13.27;;;2.72;;
55082;SDS011;40978;52.850;6.506;2022-08-01T07:28:22;22.58;;;3.42;;
55082;SDS011;40978;52.850;6.506;2022-08-01T07:30:48;14.55;;;2.78;;
55082;SDS011;40978;52.850;6.506;2022-08-01T07:33:14;23.00;;;3.78;;
55082;SDS011;40978;52.850;6.506;2022-08-01T07:35:39;15.50;;;3.20;;
55082;SDS011;40978;52.850;6.506;2022-08-01T07:38:08;12.32;;;3.03;;
55082;SDS011;40978;52.850;6.506;2022-08-01T07:40:34;16.40;;;3.03;;
55082;SDS011;40978;52.850;6.506;2022-08-01T07:43:00;13.00;;;2.70;;
55082;SDS011;40978;52.850;6.506;2022-08-01T07:45:25;14.57;;;2.65;;
55082;SDS011;40978;52.850;6.506;2022-08-01T07:47:52;18.83;;;3.38;;
55082;SDS011;40978;52.850;6.506;2022-08-01T07:50:17;18.45;;;3.20;;
55082;SDS011;40978;52.850;6.506;2022-08-01T07:52:44;17.52;;;2.92;;
55082;SDS011;40978;52.850;6.506;2022-08-01T07:55:10;13.70;;;2.72;;
55082;SDS011;40978;52.850;6.506;2022-08-01T07:57:37;17.77;;;3.13;;
55082;SDS011;40978;52.850;6.506;2022-08-01T08:00:03;11.20;;;2.65;;
55082;SDS011;40978;52.850;6.506;2022-08-01T08:02:31;16.20;;;2.70;;
55082;SDS011;40978;52.850;6.506;2022-08-01T08:04:56;13.60;;;2.45;;
55082;SDS011;40978;52.850;6.506;2022-08-01T08:07:22;14.88;;;3.30;;
55082;SDS011;40978;52.850;6.506;2022-08-01T08:09:48;13.15;;;2.95;;
55082;SDS011;40978;52.850;6.506;2022-08-01T08:12:13;13.60;;;2.85;;
55082;SDS011;40978;52.850;6.506;2022-08-01T08:14:39;13.82;;;3.08;;
55082;SDS011;40978;52.850;6.506;2022-08-01T08:17:05;14.30;;;2.50;;
55082;SDS011;40978;52.850;6.506;2022-08-01T08:19:31;14.52;;;2.40;;
55082;SDS011;40978;52.850;6.506;2022-08-01T08:21:58;18.88;;;2.67;;
55082;SDS011;40978;52.850;6.506;2022-08-01T08:24:24;15.15;;;2.38;;
55082;SDS011;40978;52.850;6.506;2022-08-01T08:26:55;13.68;;;2.60;;
55082;SDS011;40978;52.850;6.506;2022-08-01T08:29:23;12.40;;;2.53;;
55082;SDS011;40978;52.850;6.506;2022-08-01T08:31:51;16.02;;;2.15;;
55082;SDS011;40978;52.850;6.506;2022-08-01T08:34:19;16.58;;;2.80;;
55082;SDS011;40978;52.850;6.506;2022-08-01T08:36:45;10.45;;;2.40;;
55082;SDS011;40978;52.850;6.506;2022-08-01T08:39:11;12.48;;;2.10;;
55082;SDS011;40978;52.850;6.506;2022-08-01T08:41:37;12.95;;;2.30;;
55082;SDS011;40978;52.850;6.506;2022-08-01T08:44:07;12.02;;;1.98;;
55082;SDS011;40978;52.850;6.506;2022-08-01T08:46:34;10.50;;;1.90;;
55082;SDS011;40978;52.850;6.506;2022-08-01T08:49:05;15.02;;;2.72;;
55082;SDS011;40978;52.850;6.506;2022-08-01T08:51:33;11.25;;;1.92;;
55082;SDS011;40978;52.850;6.506;2022-08-01T08:54:03;12.27;;;2.40;;
55082;SDS011;40978;52.850;6.506;2022-08-01T08:56:31;17.05;;;2.75;;
55082;SDS011;40978;52.850;6.506;2022-08-01T08:59:00;10.65;;;1.73;;
55082;SDS011;40978;52.850;6.506;2022-08-01T09:01:27;10.50;;;1.80;;
55082;SDS011;40978;52.850;6.506;2022-08-01T09:03:53;12.45;;;2.15;;
55082;SDS011;40978;52.850;6.506;2022-08-01T09:06:19;7.53;;;1.80;;
55082;SDS011;40978;52.850;6.506;2022-08-01T09:08:45;10.20;;;1.67;;
55082;SDS011;40978;52.850;6.506;2022-08-01T09:11:11;14.25;;;2.10;;
55082;SDS011;40978;52.850;6.506;2022-08-01T09:13:37;9.88;;;1.50;;
55082;SDS011;40978;52.850;6.506;2022-08-01T09:16:03;8.63;;;1.88;;
55082;SDS011;40978;52.850;6.506;2022-08-01T09:23:31;13.52;;;1.80;;
55082;SDS011;40978;52.850;6.506;2022-08-01T09:25:58;9.98;;;1.98;;
55082;SDS011;40978;52.850;6.506;2022-08-01T09:28:28;7.50;;;1.70;;
55082;SDS011;40978;52.850;6.506;2022-08-01T09:30:57;9.15;;;1.70;;
55082;SDS011;40978;52.850;6.506;2022-08-01T09:33:23;6.35;;;1.25;;
55082;SDS011;40978;52.850;6.506;2022-08-01T09:35:56;7.70;;;1.35;;
55082;SDS011;40978;52.850;6.506;2022-08-01T09:38:23;9.98;;;1.67;;
55082;SDS011;40978;52.850;6.506;2022-08-01T09:40:57;8.48;;;1.65;;
55082;SDS011;40978;52.850;6.506;2022-08-01T09:43:28;6.15;;;1.42;;
55082;SDS011;40978;52.850;6.506;2022-08-01T09:45:55;8.93;;;1.30;;
55082;SDS011;40978;52.850;6.506;2022-08-01T09:48:22;6.70;;;1.42;;
55082;SDS011;40978;52.850;6.506;2022-08-01T09:50:49;5.63;;;1.42;;
55082;SDS011;40978;52.850;6.506;2022-08-01T09:53:15;7.97;;;1.10;;
55082;SDS011;40978;52.850;6.506;2022-08-01T09:55:42;5.72;;;1.00;;
55082;SDS011;40978;52.850;6.506;2022-08-01T09:58:09;11.30;;;1.67;;
55082;SDS011;40978;52.850;6.506;2022-08-01T10:00:36;6.28;;;1.13;;
55082;SDS011;40978;52.850;6.506;2022-08-01T10:05:46;6.78;;;1.15;;
55082;SDS011;40978;52.850;6.506;2022-08-01T10:08:12;6.80;;;1.67;;
55082;SDS011;40978;52.850;6.506;2022-08-01T10:10:38;6.10;;;1.55;;
55082;SDS011;40978;52.850;6.506;2022-08-01T10:13:04;8.38;;;1.48;;
55082;SDS011;40978;52.850;6.506;2022-08-01T10:15:32;7.78;;;1.13;;
55082;SDS011;40978;52.850;6.506;2022-08-01T10:18:00;7.45;;;1.25;;
55082;SDS011;40978;52.850;6.506;2022-08-01T10:20:28;8.57;;;1.20;;
55082;SDS011;40978;52.850;6.506;2022-08-01T10:23:03;6.47;;;1.10;;
55082;SDS011;40978;52.850;6.506;2022-08-01T10:25:33;6.20;;;1.10;;
55082;SDS011;40978;52.850;6.506;2022-08-01T10:28:01;7.20;;;1.05;;
55082;SDS011;40978;52.850;6.506;2022-08-01T10:30:43;6.78;;;1.20;;
55082;SDS011;40978;52.850;6.506;2022-08-01T10:33:10;7.13;;;1.48;;
55082;SDS011;40978;52.850;6.506;2022-08-01T10:35:38;7.57;;;0.93;;
55082;SDS011;40978;52.850;6.506;2022-08-01T10:38:04;7.90;;;1.30;;
55082;SDS011;40978;52.850;6.506;2022-08-01T10:40:31;6.28;;;0.85;;
55082;SDS011;40978;52.850;6.506;2022-08-01T10:42:58;7.60;;;1.00;;
55082;SDS011;40978;52.850;6.506;2022-08-01T10:45:24;9.68;;;1.55;;
55082;SDS011;40978;52.850;6.506;2022-08-01T10:47:56;5.75;;;1.10;;
55082;SDS011;40978;52.850;6.506;2022-08-01T10:50:45;5.30;;;0.90;;
55082;SDS011;40978;52.850;6.506;2022-08-01T10:53:17;9.45;;;1.30;;
55082;SDS011;40978;52.850;6.506;2022-08-01T10:58:36;7.13;;;1.13;;
55082;SDS011;40978;52.850;6.506;2022-08-01T11:01:38;5.78;;;1.27;;
55082;SDS011;40978;52.850;6.506;2022-08-01T11:04:00;7.95;;;1.10;;
55082;SDS011;40978;52.850;6.506;2022-08-01T11:09:05;6.88;;;1.02;;
55082;SDS011;40978;52.850;6.506;2022-08-01T11:14:23;7.85;;;1.17;;
55082;SDS011;40978;52.850;6.506;2022-08-01T11:16:49;3.50;;;0.73;;
55082;SDS011;40978;52.850;6.506;2022-08-01T11:19:15;4.68;;;0.88;;
55082;SDS011;40978;52.850;6.506;2022-08-01T11:27:19;5.47;;;0.82;;
55082;SDS011;40978;52.850;6.506;2022-08-01T11:32:34;3.92;;;0.68;;
55082;SDS011;40978;52.850;6.506;2022-08-01T11:35:21;5.50;;;0.90;;
55082;SDS011;40978;52.850;6.506;2022-08-01T11:37:54;6.75;;;1.20;;
55082;SDS011;40978;52.850;6.506;2022-08-01T11:40:22;6.57;;;1.10;;
55082;SDS011;40978;52.850;6.506;2022-08-01T11:42:49;5.50;;;0.75;;
55082;SDS011;40978;52.850;6.506;2022-08-01T11:45:15;5.57;;;0.82;;
55082;SDS011;40978;52.850;6.506;2022-08-01T11:47:45;6.25;;;0.77;;
55082;SDS011;40978;52.850;6.506;2022-08-01T11:53:12;6.82;;;1.00;;
55082;SDS011;40978;52.850;6.506;2022-08-01T11:55:43;4.90;;;0.80;;
55082;SDS011;40978;52.850;6.506;2022-08-01T11:58:15;6.30;;;0.80;;
55082;SDS011;40978;52.850;6.506;2022-08-01T12:00:52;6.45;;;1.15;;
55082;SDS011;40978;52.850;6.506;2022-08-01T12:03:23;6.72;;;1.00;;
55082;SDS011;40978;52.850;6.506;2022-08-01T12:05:52;4.22;;;1.02;;
55082;SDS011;40978;52.850;6.506;2022-08-01T12:08:25;4.50;;;1.02;;
55082;SDS011;40978;52.850;6.506;2022-08-01T12:10:57;4.90;;;0.98;;
55082;SDS011;40978;52.850;6.506;2022-08-01T12:13:24;5.25;;;1.02;;
55082;SDS011;40978;52.850;6.506;2022-08-01T12:15:51;5.78;;;1.35;;
55082;SDS011;40978;52.850;6.506;2022-08-01T12:18:17;7.25;;;1.33;;
55082;SDS011;40978;52.850;6.506;2022-08-01T12:20:44;5.20;;;0.95;;
55082;SDS011;40978;52.850;6.506;2022-08-01T12:23:11;6.68;;;1.10;;
55082;SDS011;40978;52.850;6.506;2022-08-01T12:25:40;5.10;;;0.90;;
55082;SDS011;40978;52.850;6.506;2022-08-01T12:28:09;5.78;;;0.77;;
55082;SDS011;40978;52.850;6.506;2022-08-01T12:30:37;4.57;;;0.88;;
55082;SDS011;40978;52.850;6.506;2022-08-01T12:33:05;6.05;;;1.17;;
55082;SDS011;40978;52.850;6.506;2022-08-01T12:35:33;4.38;;;0.80;;
55082;SDS011;40978;52.850;6.506;2022-08-01T12:38:05;6.07;;;0.80;;
55082;SDS011;40978;52.850;6.506;2022-08-01T12:40:42;4.72;;;0.77;;
55082;SDS011;40978;52.850;6.506;2022-08-01T12:43:10;6.03;;;1.23;;
55082;SDS011;40978;52.850;6.506;2022-08-01T12:45:42;7.05;;;0.85;;
55082;SDS011;40978;52.850;6.506;2022-08-01T12:48:09;5.90;;;0.90;;
55082;SDS011;40978;52.850;6.506;2022-08-01T12:50:39;5.53;;;1.15;;
55082;SDS011;40978;52.850;6.506;2022-08-01T12:53:14;6.50;;;1.10;;
55082;SDS011;40978;52.850;6.506;2022-08-01T12:55:53;6.65;;;1.15;;
55082;SDS011;40978;52.850;6.506;2022-08-01T12:58:20;2.88;;;0.52;;
55082;SDS011;40978;52.850;6.506;2022-08-01T13:00:47;3.75;;;0.70;;
55082;SDS011;40978;52.850;6.506;2022-08-01T13:03:16;4.45;;;0.80;;
55082;SDS011;40978;52.850;6.506;2022-08-01T13:05:53;3.38;;;0.80;;
55082;SDS011;40978;52.850;6.506;2022-08-01T13:10:48;4.25;;;0.75;;
55082;SDS011;40978;52.850;6.506;2022-08-01T13:13:15;4.88;;;0.85;;
55082;SDS011;40978;52.850;6.506;2022-08-01T13:15:42;6.15;;;0.85;;
55082;SDS011;40978;52.850;6.506;2022-08-01T13:18:22;5.68;;;0.90;;
55082;SDS011;40978;52.850;6.506;2022-08-01T13:21:13;7.07;;;0.98;;
55082;SDS011;40978;52.850;6.506;2022-08-01T13:23:41;5.38;;;0.80;;
55082;SDS011;40978;52.850;6.506;2022-08-01T13:26:47;5.35;;;0.75;;
55082;SDS011;40978;52.850;6.506;2022-08-01T13:29:14;3.67;;;0.65;;
55082;SDS011;40978;52.850;6.506;2022-08-01T13:31:42;5.72;;;0.88;;
55082;SDS011;40978;52.850;6.506;2022-08-01T13:34:08;7.47;;;0.85;;
55082;SDS011;40978;52.850;6.506;2022-08-01T13:36:35;3.60;;;0.70;;
55082;SDS011;40978;52.850;6.506;2022-08-01T13:39:02;5.97;;;0.80;;
55082;SDS011;40978;52.850;6.506;2022-08-01T13:41:48;5.70;;;0.57;;
55082;SDS011;40978;52.850;6.506;2022-08-01T13:44:14;7.30;;;0.98;;
55082;SDS011;40978;52.850;6.506;2022-08-01T13:46:40;6.90;;;1.20;;
55082;SDS011;40978;52.850;6.506;2022-08-01T13:49:08;3.65;;;0.75;;
55082;SDS011;40978;52.850;6.506;2022-08-01T13:51:35;6.15;;;0.98;;
55082;SDS011;40978;52.850;6.506;2022-08-01T13:54:04;6.05;;;1.00;;
55082;SDS011;40978;52.850;6.506;2022-08-01T13:56:30;5.82;;;0.80;;
55082;SDS011;40978;52.850;6.506;2022-08-01T13:58:57;6.82;;;0.88;;
55082;SDS011;40978;52.850;6.506;2022-08-01T14:01:23;4.55;;;0.60;;
55082;SDS011;40978;52.850;6.506;2022-08-01T14:03:49;5.25;;;0.77;;
55082;SDS011;40978;52.850;6.506;2022-08-01T14:06:16;3.13;;;0.65;;
55082;SDS011;40978;52.850;6.506;2022-08-01T14:08:43;6.10;;;0.82;;
55082;SDS011;40978;52.850;6.506;2022-08-01T14:11:09;7.88;;;1.08;;
55082;SDS011;40978;52.850;6.506;2022-08-01T14:13:35;5.38;;;0.98;;
55082;SDS011;40978;52.850;6.506;2022-08-01T14:16:03;7.93;;;1.10;;
55082;SDS011;40978;52.850;6.506;2022-08-01T14:18:32;19.92;;;1.38;;
55082;SDS011;40978;52.850;6.506;2022-08-01T14:20:58;4.00;;;0.80;;
55082;SDS011;40978;52.850;6.506;2022-08-01T14:23:24;4.82;;;0.80;;
55082;SDS011;40978;52.850;6.506;2022-08-01T14:25:50;4.07;;;0.70;;
55082;SDS011;40978;52.850;6.506;2022-08-01T14:28:16;4.85;;;0.80;;
55082;SDS011;40978;52.850;6.506;2022-08-01T14:30:42;4.13;;;0.80;;
55082;SDS011;40978;52.850;6.506;2022-08-01T14:33:08;4.95;;;0.90;;
55082;SDS011;40978;52.850;6.506;2022-08-01T14:35:34;5.55;;;0.63;;
55082;SDS011;40978;52.850;6.506;2022-08-01T14:38:00;6.18;;;0.80;;
55082;SDS011;40978;52.850;6.506;2022-08-01T14:40:26;5.32;;;0.85;;
55082;SDS011;40978;52.850;6.506;2022-08-01T14:42:51;7.78;;;1.10;;
55082;SDS011;40978;52.850;6.506;2022-08-01T14:45:17;5.82;;;1.00;;
55082;SDS011;40978;52.850;6.506;2022-08-01T14:47:43;6.97;;;1.25;;
55082;SDS011;40978;52.850;6.506;2022-08-01T14:50:11;6.25;;;0.90;;
55082;SDS011;40978;52.850;6.506;2022-08-01T14:52:40;5.45;;;0.82;;
55082;SDS011;40978;52.850;6.506;2022-08-01T14:55:08;6.20;;;0.90;;
55082;SDS011;40978;52.850;6.506;2022-08-01T14:57:35;5.53;;;0.77;;
55082;SDS011;40978;52.850;6.506;2022-08-01T15:00:03;5.32;;;0.93;;
55082;SDS011;40978;52.850;6.506;2022-08-01T15:02:30;5.90;;;0.90;;
55082;SDS011;40978;52.850;6.506;2022-08-01T15:04:56;6.20;;;0.70;;
55082;SDS011;40978;52.850;6.506;2022-08-01T15:07:21;4.90;;;0.68;;
55082;SDS011;40978;52.850;6.506;2022-08-01T15:09:47;4.07;;;0.60;;
55082;SDS011;40978;52.850;6.506;2022-08-01T15:12:13;6.47;;;0.93;;
55082;SDS011;40978;52.850;6.506;2022-08-01T15:14:39;4.00;;;0.65;;
55082;SDS011;40978;52.850;6.506;2022-08-01T15:17:24;6.00;;;0.88;;
55082;SDS011;40978;52.850;6.506;2022-08-01T15:19:54;5.47;;;0.63;;
55082;SDS011;40978;52.850;6.506;2022-08-01T15:22:21;3.95;;;1.00;;
55082;SDS011;40978;52.850;6.506;2022-08-01T15:24:48;4.25;;;0.82;;